Time;durP1;ratioP1;P1;durP2;ratioP2;P2;SDS_P1;SDS_P2;PMS_P1;PMS_P2;Temp;Humidity;BMP_temperature;BMP_pressure;BME280_temperature;BME280_humidity;BME280_pressure;Samples;Min_cycle;Max_cycle;Signal;HPM_P1;HPM_P2
2023/01/22 00:00:14;;;;;;;40.38;23.77;;;;;;;2.75;73.24;102124.43;1653634;85;21217;-59
2023/01/22 00:03:20;;;;;;;40.05;23.32;;;;;;;2.70;73.13;102134.62;1653623;87;21280;-59
2023/01/22 00:06:26;;;;;;;39.65;22.32;;;;;;;2.66;73.09;102130.31;1653615;87;21216;-59
2023/01/22 00:09:31;;;;;;;34.90;20.62;;;;;;;2.56;72.90;102134.96;1653577;85;21236;-59
2023/01/22 00:12:38;;;;;;;38.90;22.40;;;;;;;2.51;73.00;102132.52;1630005;87;21289;-58
2023/01/22 00:15:46;;;;;;;37.78;21.87;;;;;;;2.54;73.15;102142.27;1653531;85;21228;-59
2023/01/22 00:18:52;;;;;;;40.43;21.55;;;;;;;2.58;73.26;102143.41;1653577;85;21212;-59
2023/01/22 00:21:58;;;;;;;41.90;22.27;;;;;;;2.56;73.16;102137.20;1653527;85;21233;-57
2023/01/22 00:25:05;;;;;;;39.25;23.12;;;;;;;2.58;73.22;102139.34;1653664;85;21328;-58
2023/01/22 00:28:10;;;;;;;39.70;22.65;;;;;;;2.54;73.12;102141.80;1653559;87;21221;-59
2023/01/22 00:31:17;;;;;;;39.15;23.75;;;;;;;2.58;73.21;102150.62;1653608;87;21260;-59
2023/01/22 00:34:24;;;;;;;42.23;24.52;;;;;;;2.53;73.04;102152.70;1653545;85;21308;-59
2023/01/22 00:37:34;;;;;;;34.53;21.23;;;;;;;2.52;73.14;102150.46;1653709;87;21261;-59
2023/01/22 00:40:39;;;;;;;39.20;21.75;;;;;;;2.54;73.26;102155.78;1653540;85;21280;-58
2023/01/22 00:43:45;;;;;;;38.48;22.87;;;;;;;2.56;73.38;102158.83;1653678;85;21261;-59
2023/01/22 00:46:51;;;;;;;38.17;21.40;;;;;;;2.57;73.40;102163.77;1653590;87;21241;-59
2023/01/22 00:49:59;;;;;;;41.55;22.05;;;;;;;2.56;73.33;102160.64;1654880;85;21248;-58
2023/01/22 00:53:06;;;;;;;37.95;23.75;;;;;;;2.53;73.30;102160.80;1656432;86;21245;-59
2023/01/22 00:56:14;;;;;;;35.88;22.07;;;;;;;2.54;73.41;102158.48;1656960;86;21212;-58
2023/01/22 00:59:19;;;;;;;38.67;21.70;;;;;;;2.55;73.43;102150.30;1656464;85;21224;-58
2023/01/22 01:02:26;;;;;;;40.30;22.05;;;;;;;2.57;73.49;102150.24;1657381;86;21345;-59
2023/01/22 01:05:32;;;;;;;32.03;20.02;;;;;;;2.48;73.24;102152.06;1656473;85;21378;-59
2023/01/22 01:08:42;;;;;;;36.65;21.25;;;;;;;2.44;73.38;102158.60;1657172;85;21205;-60
2023/01/22 01:11:50;;;;;;;38.73;22.25;;;;;;;2.45;73.50;102162.57;1656465;86;21216;-58
2023/01/22 01:14:56;;;;;;;33.25;20.70;;;;;;;2.43;73.44;102164.47;1656411;85;21256;-58
2023/01/22 01:18:02;;;;;;;35.28;21.15;;;;;;;2.40;73.31;102166.45;1638033;86;21400;-59
2023/01/22 01:21:08;;;;;;;31.73;19.37;;;;;;;2.35;73.30;102163.11;1656731;86;21237;-59
2023/01/22 01:24:15;;;;;;;38.65;20.60;;;;;;;2.37;73.44;102160.75;1656511;85;21284;-58
2023/01/22 01:27:21;;;;;;;39.23;21.52;;;;;;;2.36;73.44;102172.48;1639532;86;21256;-58
2023/01/22 01:30:28;;;;;;;45.20;23.77;;;;;;;2.34;73.29;102168.14;1656860;85;21316;-58
2023/01/22 01:33:34;;;;;;;45.80;23.98;;;;;;;2.19;73.09;102165.75;1656715;86;21260;-58
2023/01/22 01:36:40;;;;;;;42.43;24.80;;;;;;;2.16;73.31;102174.48;1656585;86;21240;-58
2023/01/22 01:39:51;;;;;;;39.25;23.52;;;;;;;2.18;73.45;102170.77;1656434;85;21801;-58
2023/01/22 01:42:56;;;;;;;40.28;23.80;;;;;;;2.25;73.61;102163.22;1656651;86;21245;-58
2023/01/22 01:46:02;;;;;;;44.05;23.55;;;;;;;2.28;73.61;102172.52;1656845;85;21248;-59
2023/01/22 01:49:04;;;;;;;42.03;24.10;;;;;;;2.35;73.69;102175.27;1637127;85;21233;-58
2023/01/22 01:52:15;;;;;;;43.05;24.47;;;;;;;2.36;73.61;102170.29;1657319;86;21248;-58
2023/01/22 01:55:21;;;;;;;39.88;22.25;;;;;;;2.33;73.59;102173.16;1656467;85;21233;-58
2023/01/22 01:58:29;;;;;;;36.80;22.02;;;;;;;2.33;73.64;102178.55;1656531;86;21236;-59
2023/01/22 02:01:36;;;;;;;39.53;22.35;;;;;;;2.32;73.67;102167.33;1656560;86;21204;-59
2023/01/22 02:04:42;;;;;;;38.05;22.40;;;;;;;2.26;73.54;102168.55;1656565;85;21332;-58
2023/01/22 02:07:49;;;;;;;34.55;19.15;;;;;;;2.27;73.59;102172.09;1656537;86;21272;-57
2023/01/22 02:10:55;;;;;;;29.95;18.30;;;;;;;2.27;73.65;102172.09;1637935;86;21240;-58
2023/01/22 02:14:11;;;;;;;32.70;19.17;;;;;;;2.29;73.76;102171.55;1656424;85;21240;-58
2023/01/22 02:17:24;;;;;;;38.53;19.10;;;;;;;2.34;73.80;102174.89;1656469;86;21265;-58
2023/01/22 02:20:31;;;;;;;;;;;;;;;2.35;73.81;102172.58;1658946;85;21249;-58
2023/01/22 02:23:38;;;;;;;31.37;19.62;;;;;;;2.36;73.77;102167.09;1656573;86;20339;-58
2023/01/22 02:26:45;;;;;;;34.73;20.15;;;;;;;2.36;73.83;102171.64;1656468;86;21394;-58
2023/01/22 02:29:51;;;;;;;37.83;21.50;;;;;;;2.37;73.87;102174.73;1656536;85;21269;-59
2023/01/22 02:32:58;;;;;;;36.50;21.87;;;;;;;2.37;73.90;102168.86;1656513;86;21349;-57
2023/01/22 02:36:04;;;;;;;39.48;22.15;;;;;;;2.36;73.82;102172.98;1656477;86;21229;-58
2023/01/22 02:39:11;;;;;;;40.83;22.10;;;;;;;2.36;73.78;102172.98;1656551;85;21333;-59
2023/01/22 02:42:18;;;;;;;35.73;20.72;;;;;;;2.37;73.79;102182.83;1656630;86;21293;-58
2023/01/22 02:45:26;;;;;;;43.45;22.37;;;;;;;2.36;73.79;102181.95;1656441;85;21260;-58
2023/01/22 02:48:31;;;;;;;37.42;23.77;;;;;;;2.37;73.79;102174.73;1656469;86;21280;-59
2023/01/22 02:51:38;;;;;;;39.38;21.55;;;;;;;2.31;73.62;102173.70;1657618;83;21298;-59
2023/01/22 02:54:45;;;;;;;41.18;23.73;;;;;;;2.25;73.63;102176.73;1656539;85;21244;-59
2023/01/22 02:57:52;;;;;;;42.35;23.65;;;;;;;2.22;73.68;102168.78;1656578;86;21219;-59
2023/01/22 03:00:59;;;;;;;38.73;22.17;;;;;;;2.21;73.77;102175.13;1656559;85;21415;-58
2023/01/22 03:04:10;;;;;;;41.90;23.67;;;;;;;2.17;73.71;102178.95;1656447;85;21237;-59
2023/01/22 03:07:16;;;;;;;42.73;24.55;;;;;;;2.11;73.53;102177.92;1656500;86;21253;-58
2023/01/22 03:10:26;;;;;;;45.40;24.07;;;;;;;2.08;73.62;102176.23;1656564;85;21300;-59
2023/01/22 03:23:34;;;;;;;45.25;25.90;;;;;;;2.16;73.94;102168.61;1707926;84;21232;-59
2023/01/22 03:26:41;;;;;;;45.63;24.35;;;;;;;2.16;73.94;102172.66;1709674;83;21208;-58
2023/01/22 03:29:48;;;;;;;47.50;25.40;;;;;;;2.14;73.87;102175.06;1709802;82;21318;-59
2023/01/22 03:32:55;;;;;;;43.85;25.20;;;;;;;2.15;73.99;102181.73;1709999;83;21216;-59
2023/01/22 03:36:00;;;;;;;43.80;24.37;;;;;;;2.17;74.00;102177.09;1697066;83;21240;-59
2023/01/22 03:39:08;;;;;;;46.58;24.72;;;;;;;2.21;74.04;102183.22;1696268;82;21223;-59
2023/01/22 03:42:16;;;;;;;48.80;25.00;;;;;;;2.18;73.97;102173.47;1709960;83;21220;-59
2023/01/22 03:45:23;;;;;;;50.23;26.60;;;;;;;2.09;73.85;102177.11;1714648;82;21392;-60
2023/01/22 03:48:33;;;;;;;48.28;26.82;;;;;;;2.11;74.00;102179.27;1691441;83;21287;-59
2023/01/22 03:51:40;;;;;;;49.48;24.92;;;;;;;2.15;74.07;102182.20;1691738;85;21340;-59
2023/01/22 03:54:48;;;;;;;52.30;26.57;;;;;;;2.13;74.06;102187.68;1691647;85;21219;-58
2023/01/22 03:57:56;;;;;;;55.83;26.25;;;;;;;2.12;74.10;102189.11;1691790;85;21184;-59
2023/01/22 04:01:02;;;;;;;48.25;27.30;;;;;;;2.11;74.13;102188.22;1690060;82;21480;-58
2023/01/22 04:04:10;;;;;;;50.58;26.97;;;;;;;2.14;74.12;102192.61;1691690;85;21421;-58
2023/01/22 04:07:16;;;;;;;50.05;26.93;;;;;;;2.14;73.99;102206.13;1691751;85;21268;-59
2023/01/22 04:10:21;;;;;;;52.27;27.75;;;;;;;2.14;74.03;102203.42;1691707;85;21215;-58
2023/01/22 04:13:27;;;;;;;49.38;26.62;;;;;;;2.18;74.18;102199.59;1691717;85;21328;-56
2023/01/22 04:16:34;;;;;;;51.63;26.35;;;;;;;2.23;74.28;102212.39;1691713;85;21212;-59
2023/01/22 04:19:52;;;;;;;47.83;26.30;;;;;;;2.21;74.17;102217.00;1691258;83;21220;-59
2023/01/22 04:23:06;;;;;;;54.83;27.55;;;;;;;2.17;74.07;102216.27;1691752;85;21401;-59
2023/01/22 04:26:16;;;;;;;54.30;26.95;;;;;;;2.18;74.16;102221.20;1691762;85;21235;-59
2023/01/22 04:29:23;;;;;;;51.92;28.30;;;;;;;2.20;74.19;102233.70;1693297;84;21243;-59
2023/01/22 04:32:31;;;;;;;47.90;27.65;;;;;;;2.19;74.17;102229.23;1691840;84;21219;-59
2023/01/22 04:35:38;;;;;;;49.13;27.55;;;;;;;2.19;74.18;102239.19;1691813;84;21579;-59
2023/01/22 04:38:44;;;;;;;53.73;26.90;;;;;;;2.20;74.19;102229.66;1693530;84;21263;-58
2023/01/22 04:41:49;;;;;;;57.00;26.42;;;;;;;2.12;73.99;102225.11;1691693;85;21348;-59
2023/01/22 04:44:56;;;;;;;47.95;24.45;;;;;;;2.02;73.84;102233.27;1691621;85;21307;-59
2023/01/22 04:48:02;;;;;;;51.50;25.50;;;;;;;1.91;73.87;102236.98;1691710;85;21214;-58
2023/01/22 04:51:09;;;;;;;43.45;23.67;;;;;;;1.91;74.03;102240.14;1692014;84;21243;-59
2023/01/22 04:54:15;;;;;;;48.38;24.35;;;;;;;1.95;74.26;102249.36;1693534;84;21764;-59
2023/01/22 04:57:21;;;;;;;52.05;24.75;;;;;;;2.04;74.37;102254.33;1691665;85;21271;-59
2023/01/22 05:00:27;;;;;;;51.53;25.30;;;;;;;2.11;74.45;102256.25;1691822;85;21369;-58
2023/01/22 05:03:35;;;;;;;47.88;25.25;;;;;;;2.18;74.50;102246.41;1691743;85;21219;-59
2023/01/22 05:06:42;;;;;;;55.70;26.68;;;;;;;2.20;74.47;102252.62;1691779;85;21227;-58
2023/01/22 05:09:48;;;;;;;45.38;24.92;;;;;;;2.20;74.40;102255.78;1691834;85;21772;-59
2023/01/22 05:12:53;;;;;;;54.45;26.37;;;;;;;2.21;74.36;102257.52;1691771;85;21280;-58
2023/01/22 05:16:00;;;;;;;49.93;25.08;;;;;;;2.18;74.26;102261.73;1691730;85;21307;-59
2023/01/22 05:19:07;;;;;;;49.83;25.15;;;;;;;2.11;74.20;102269.76;1691880;85;21212;-59
2023/01/22 05:22:13;;;;;;;46.63;26.37;;;;;;;2.11;74.29;102267.91;1691650;85;21196;-58
2023/01/22 05:25:18;;;;;;;45.58;23.02;;;;;;;2.14;74.39;102272.30;1691577;84;21248;-59
2023/01/22 05:28:24;;;;;;;45.23;22.90;;;;;;;2.17;74.43;102267.59;1692751;84;21259;-58
2023/01/22 05:31:34;;;;;;;41.02;21.65;;;;;;;2.13;74.42;102272.77;1693301;84;21227;-58
2023/01/22 05:34:50;;;;;;;43.70;21.77;;;;;;;2.12;74.48;102269.68;1691757;85;21235;-59
2023/01/22 05:38:00;;;;;;;47.98;22.45;;;;;;;2.14;74.46;102277.70;1692564;84;21417;-59
2023/01/22 05:41:06;;;;;;;43.30;21.75;;;;;;;2.12;74.41;102272.84;1691095;84;21184;-59
2023/01/22 05:44:13;;;;;;;41.02;21.17;;;;;;;2.05;74.33;102282.19;1691851;84;21239;-58
2023/01/22 05:47:19;;;;;;;39.03;20.00;;;;;;;2.03;74.46;102280.06;1693593;84;21227;-59
2023/01/22 05:50:29;;;;;;;38.42;19.80;;;;;;;2.07;74.53;102291.11;1692218;84;21255;-60
2023/01/22 05:53:45;;;;;;;39.92;20.43;;;;;;;2.10;74.64;102296.34;1691756;84;21208;-59
2023/01/22 05:56:52;;;;;;;49.30;25.32;;;;;;;2.14;74.71;102294.77;1691767;84;21204;-59
2023/01/22 05:59:59;;;;;;;52.93;29.00;;;;;;;2.21;74.76;102292.64;1694208;84;21278;-60
2023/01/22 06:03:06;;;;;;;44.95;22.85;;;;;;;2.23;74.82;102294.80;1701567;84;21192;-60
2023/01/22 06:06:11;;;;;;;40.67;21.55;;;;;;;2.26;74.81;102305.45;1691317;85;21760;-59
2023/01/22 06:09:22;;;;;;;39.67;20.37;;;;;;;2.28;74.81;102308.50;1701544;84;21250;-60
2023/01/22 06:12:28;;;;;;;42.85;20.82;;;;;;;2.32;74.84;102303.79;1692061;84;21373;-59
2023/01/22 06:18:57;;;;;;;38.05;20.08;;;;;;;2.47;74.89;102313.84;1931907;73;22241;-54
2023/01/22 06:22:08;;;;;;;;;;;;;;;2.46;74.90;102319.72;1858796;77;21160;-52
2023/01/22 06:25:17;;;;;;;33.13;19.80;;;;;;;2.52;74.92;102325.31;1861440;76;20247;-53
2023/01/22 06:28:23;;;;;;;41.73;25.10;;;;;;;2.56;74.95;102326.89;1826631;78;21706;-54
2023/01/22 06:31:31;;;;;;;50.78;28.95;;;;;;;2.61;74.98;102331.59;1838197;77;21193;-54
2023/01/22 06:34:40;;;;;;;55.23;30.68;;;;;;;2.66;74.95;102327.69;1840103;76;21200;-56
2023/01/22 06:37:47;;;;;;;37.55;21.27;;;;;;;2.70;74.89;102323.89;1839675;77;21157;-54
2023/01/22 06:41:00;;;;;;;34.50;18.98;;;;;;;2.74;74.78;102330.02;1829974;77;21317;-53
2023/01/22 06:44:07;;;;;;;30.43;16.95;;;;;;;2.76;74.73;102333.50;1832311;76;21393;-54
2023/01/22 06:47:13;;;;;;;29.27;16.62;;;;;;;2.77;74.67;102328.04;1840009;77;21185;-55
2023/01/22 06:50:19;;;;;;;28.55;16.60;;;;;;;2.78;74.76;102330.25;1839527;76;21188;-53
2023/01/22 06:53:26;;;;;;;25.85;15.85;;;;;;;2.83;74.82;102329.53;1854962;77;21200;-53
2023/01/22 06:56:32;;;;;;;24.07;15.38;;;;;;;2.87;74.86;102329.30;1860863;77;21180;-53
2023/01/22 06:59:37;;;;;;;28.32;16.05;;;;;;;2.95;74.90;102330.24;1866685;77;21184;-54
2023/01/22 07:02:42;;;;;;;24.32;14.63;;;;;;;2.96;74.75;102336.07;1849032;76;21189;-53
2023/01/22 07:05:49;;;;;;;23.90;14.35;;;;;;;2.97;74.71;102333.75;1838884;77;21427;-54
2023/01/22 07:08:56;;;;;;;26.80;16.17;;;;;;;2.91;74.46;102332.26;1823762;76;21227;-52
2023/01/22 07:12:03;;;;;;;27.40;14.70;;;;;;;2.85;74.49;102328.48;1840232;78;21184;-53
2023/01/22 07:15:10;;;;;;;25.52;14.20;;;;;;;2.89;74.58;102336.86;1826577;76;21162;-53
2023/01/22 07:18:18;;;;;;;25.05;14.20;;;;;;;2.96;74.63;102340.12;1830652;77;21807;-54
2023/01/22 07:21:26;;;;;;;26.73;14.20;;;;;;;2.95;74.55;102339.70;1812775;77;21275;-54
2023/01/22 07:24:31;;;;;;;27.22;15.32;;;;;;;2.95;74.64;102343.77;1809084;78;21727;-54
2023/01/22 07:27:37;;;;;;;27.45;14.63;;;;;;;2.94;74.67;102345.62;1824710;76;21165;-53
2023/01/22 07:30:48;;;;;;;30.75;15.83;;;;;;;2.98;74.71;102349.05;1810630;78;21243;-54
2023/01/22 07:33:52;;;;;;;32.48;16.60;;;;;;;3.00;74.75;102345.30;1810094;78;21248;-53
2023/01/22 07:36:57;;;;;;;30.45;15.88;;;;;;;3.07;74.79;102349.91;1810815;79;21679;-54
2023/01/22 07:40:04;;;;;;;32.08;17.12;;;;;;;3.10;74.75;102353.80;1810649;78;21275;-54
2023/01/22 07:43:16;;;;;;;28.50;15.68;;;;;;;3.11;74.77;102356.89;1831195;78;21240;-54
2023/01/22 07:46:24;;;;;;;31.48;17.10;;;;;;;3.18;74.84;102356.09;1843545;77;21161;-53
2023/01/22 07:49:30;;;;;;;31.25;16.12;;;;;;;3.11;74.55;102365.02;1843933;76;21706;-53
2023/01/22 07:52:35;;;;;;;33.08;15.85;;;;;;;3.11;74.65;102365.52;1843934;76;21710;-54
2023/01/22 07:55:42;;;;;;;35.80;18.75;;;;;;;3.16;74.72;102367.00;1843943;76;21239;-52
2023/01/22 07:58:49;;;;;;;39.67;18.87;;;;;;;3.21;74.69;102371.70;1844303;76;21721;-53
2023/01/22 08:01:55;;;;;;;32.45;18.25;;;;;;;3.23;74.63;102371.63;1844484;77;21311;-53
2023/01/22 08:05:02;;;;;;;38.20;20.55;;;;;;;3.19;74.57;102374.96;1843857;76;21753;-54
2023/01/22 08:08:08;;;;;;;39.67;22.42;;;;;;;3.15;74.51;102375.20;1844303;77;21358;-53
2023/01/22 08:11:15;;;;;;;42.62;21.95;;;;;;;3.14;74.61;102381.09;1844101;77;21322;-55
2023/01/22 08:14:21;;;;;;;43.42;22.67;;;;;;;3.18;74.72;102381.34;1844211;76;21161;-55
2023/01/22 08:17:27;;;;;;;49.23;24.65;;;;;;;3.23;74.77;102378.39;1844326;76;21164;-55
2023/01/22 08:20:34;;;;;;;40.20;19.30;;;;;;;3.23;74.69;102382.45;1840541;76;21165;-53
2023/01/22 08:23:41;;;;;;;59.98;28.77;;;;;;;3.22;74.73;102388.33;1837273;76;21208;-52
2023/01/22 08:26:47;;;;;;;44.83;24.30;;;;;;;3.19;74.66;102385.78;1837765;78;21165;-54
2023/01/22 08:29:54;;;;;;;54.65;28.70;;;;;;;3.18;74.66;102379.98;1837834;76;21196;-54
2023/01/22 08:32:59;;;;;;;59.08;28.38;;;;;;;3.18;74.61;102377.28;1838167;77;21165;-54
2023/01/22 08:35:59;;;;;;;43.10;21.95;;;;;;;3.20;74.64;102380.79;1837609;76;21213;-53
2023/01/22 08:39:04;;;;;;;40.78;21.15;;;;;;;3.21;74.64;102386.59;1838102;76;21165;-54
2023/01/22 08:42:11;;;;;;;45.30;22.00;;;;;;;3.19;74.51;102387.64;1838185;77;21154;-54
2023/01/22 08:45:18;;;;;;;39.27;20.52;;;;;;;3.15;74.56;102380.62;1794167;78;21372;-54
2023/01/22 08:48:25;;;;;;;48.65;28.15;;;;;;;3.17;74.63;102378.25;1797757;79;21181;-53
2023/01/22 08:51:31;;;;;;;59.38;28.77;;;;;;;3.20;74.70;102379.44;1835448;78;21174;-54
2023/01/22 08:54:36;;;;;;;38.70;21.20;;;;;;;3.25;74.71;102380.55;1836525;76;21240;-54
2023/01/22 08:57:43;;;;;;;35.60;17.92;;;;;;;3.19;74.52;102380.38;1837260;78;21165;-54
2023/01/22 09:00:49;;;;;;;32.53;18.45;;;;;;;3.19;74.58;102376.31;1837624;76;21169;-55
2023/01/22 09:03:56;;;;;;;31.17;18.60;;;;;;;3.16;74.52;102373.77;1838320;76;21201;-53
2023/01/22 09:07:03;;;;;;;36.80;20.52;;;;;;;3.15;74.49;102375.20;1837845;78;21240;-53
2023/01/22 09:10:11;;;;;;;39.18;20.70;;;;;;;3.16;74.59;102384.59;1836978;76;21482;-53
2023/01/22 09:13:18;;;;;;;34.83;20.02;;;;;;;3.17;74.58;102382.77;1837382;78;21169;-53
2023/01/22 09:16:25;;;;;;;41.20;22.52;;;;;;;3.21;74.65;102382.53;1837473;78;21145;-54
2023/01/22 09:19:33;;;;;;;32.23;17.92;;;;;;;3.26;74.70;102386.34;1837588;76;21223;-54
2023/01/22 09:22:38;;;;;;;28.83;16.80;;;;;;;3.27;74.62;102387.61;1837826;78;21236;-55
2023/01/22 09:25:44;;;;;;;32.73;18.75;;;;;;;3.23;74.40;102388.74;1838466;76;21196;-54
2023/01/22 09:28:52;;;;;;;27.25;17.25;;;;;;;3.20;74.37;102386.67;1838197;76;21174;-53
2023/01/22 09:31:52;;;;;;;28.80;17.27;;;;;;;3.18;74.38;102388.10;1838102;78;21181;-52
2023/01/22 09:34:57;;;;;;;28.00;16.52;;;;;;;3.17;74.29;102382.77;1837959;76;21193;-53
2023/01/22 09:38:04;;;;;;;31.70;17.92;;;;;;;3.15;74.27;102384.20;1838351;77;21299;-54
2023/01/22 09:41:33;;;;;;;36.10;20.00;;;;;;;3.10;74.20;102383.56;1819776;77;21327;-55
2023/01/22 09:44:47;;;;;;;34.98;20.60;;;;;;;3.11;74.35;102375.84;1832730;78;21769;-54
2023/01/22 09:47:59;;;;;;;34.43;20.27;;;;;;;3.06;74.24;102373.84;1837476;78;21169;-54
2023/01/22 09:51:03;;;;;;;28.62;17.05;;;;;;;3.06;74.37;102369.78;1804042;78;21188;-54
2023/01/22 09:54:14;;;;;;;29.82;17.07;;;;;;;3.10;74.41;102371.39;1803613;78;21192;-54
2023/01/22 09:57:19;;;;;;;29.05;17.35;;;;;;;3.12;74.37;102370.84;1803477;79;21714;-54
2023/01/22 10:00:32;;;;;;;26.37;15.70;;;;;;;3.12;74.38;102364.08;1803728;78;21209;-54
2023/01/22 10:03:59;;;;;;;26.37;16.37;;;;;;;3.12;74.40;102369.48;1804762;79;21189;-55
2023/01/22 10:07:07;;;;;;;29.42;17.12;;;;;;;3.15;74.46;102367.97;1803660;79;21745;-53
2023/01/22 10:10:26;;;;;;;26.20;16.67;;;;;;;3.17;74.48;102362.48;1822191;76;21205;-54
2023/01/22 10:13:41;;;;;;;30.95;17.45;;;;;;;3.17;74.51;102366.07;1828454;77;21205;-53
2023/01/22 10:16:47;;;;;;;30.95;17.85;;;;;;;3.20;74.52;102357.78;1804822;79;21169;-53
2023/01/22 10:19:57;;;;;;;28.15;16.75;;;;;;;3.18;74.41;102354.28;1803914;78;21251;-52
2023/01/22 10:23:05;;;;;;;28.07;15.93;;;;;;;3.19;74.48;102354.66;1838624;75;21813;-53
2023/01/22 10:26:24;;;;;;;26.35;16.52;;;;;;;3.21;74.45;102355.47;1836594;77;21196;-54
2023/01/22 10:29:39;;;;;;;31.60;17.65;;;;;;;3.25;74.52;102353.48;1836328;76;21193;-53
2023/01/22 10:32:46;;;;;;;30.40;16.02;;;;;;;3.27;74.49;102356.98;1836318;77;21797;-54
2023/01/22 10:35:57;;;;;;;31.80;16.70;;;;;;;3.28;74.49;102355.55;1835741;77;21231;-54
2023/01/22 10:39:21;;;;;;;26.52;15.28;;;;;;;3.22;74.35;102353.14;1836460;76;21189;-54
2023/01/22 10:42:31;;;;;;;28.98;16.25;;;;;;;3.23;74.34;102354.03;1837187;77;21852;-54
2023/01/22 10:45:36;;;;;;;28.38;16.65;;;;;;;3.21;74.41;102350.05;1837494;76;21212;-53
2023/01/22 10:48:43;;;;;;;31.48;16.67;;;;;;;3.23;74.41;102349.97;1836869;76;21188;-55
2023/01/22 10:51:52;;;;;;;27.70;16.23;;;;;;;3.22;74.38;102349.09;1836563;78;21215;-53
2023/01/22 10:55:03;;;;;;;35.78;20.45;;;;;;;3.22;74.39;102349.59;1836997;76;21209;-55
2023/01/22 10:58:15;;;;;;;37.45;22.70;;;;;;;3.23;74.40;102350.86;1834977;78;21694;-55
2023/01/22 11:01:33;;;;;;;33.98;20.97;;;;;;;3.18;74.22;102350.22;1795016;79;21205;-55
2023/01/22 11:04:40;;;;;;;35.20;19.20;;;;;;;3.16;74.31;102353.94;1835019;77;21208;-54
2023/01/22 11:07:48;;;;;;;37.90;19.77;;;;;;;3.17;74.42;102350.30;1795404;80;21189;-54
2023/01/22 11:11:08;;;;;;;40.38;24.15;;;;;;;3.20;74.49;102351.02;1835333;78;21196;-54
2023/01/22 11:14:25;;;;;;;26.57;16.40;;;;;;;3.23;74.55;102346.80;1835283;76;21326;-54
2023/01/22 11:17:42;;;;;;;26.02;14.93;;;;;;;3.25;74.56;102347.56;1782798;79;21544;-54
2023/01/22 11:21:02;;;;;;;26.02;14.63;;;;;;;3.29;74.62;102351.87;1803341;78;21820;-53
2023/01/22 11:24:18;;;;;;;25.97;15.75;;;;;;;3.31;74.64;102344.56;1768985;78;21263;-54
2023/01/22 11:27:56;;;;;;;28.25;17.15;;;;;;;3.34;74.53;102344.39;1815210;77;21521;-54
2023/01/22 11:31:25;;;;;;;24.52;15.32;;;;;;;3.33;74.50;102341.77;1840003;76;21213;-54
2023/01/22 11:34:45;;;;;;;29.87;17.05;;;;;;;3.26;74.43;102339.86;1839870;76;21184;-53
2023/01/22 11:38:04;;;;;;;27.17;16.25;;;;;;;3.23;74.42;102344.09;1840826;77;21169;-54
2023/01/22 11:41:22;;;;;;;26.90;16.57;;;;;;;3.24;74.40;102344.94;1838930;77;21244;-54
2023/01/22 11:44:41;;;;;;;30.92;15.95;;;;;;;3.14;74.31;102342.35;1838482;77;21553;-56
2023/01/22 11:48:11;;;;;;;28.15;15.25;;;;;;;3.11;74.39;102336.60;1838461;76;21557;-56
2023/01/22 11:51:51;;;;;;;28.15;14.20;;;;;;;3.13;74.53;102341.93;1838985;77;21193;-54
2023/01/22 11:55:21;;;;;;;26.93;15.68;;;;;;;3.18;74.67;102346.16;1839176;77;21248;-55
2023/01/22 11:58:49;;;;;;;26.60;14.93;;;;;;;3.23;74.61;102348.16;1839493;77;21193;-55
2023/01/22 12:02:09;;;;;;;26.27;14.90;;;;;;;3.22;74.56;102351.80;1839535;77;21190;-54
2023/01/22 12:05:57;;;;;;;27.67;14.70;;;;;;;3.02;74.19;102346.56;1839360;77;21340;-54
2023/01/22 12:09:23;;;;;;;29.05;15.80;;;;;;;2.97;74.35;102355.39;1838640;77;21197;-55
2023/01/22 12:12:40;;;;;;;30.35;15.35;;;;;;;2.96;74.55;102353.66;1838410;77;21220;-53
2023/01/22 12:16:13;;;;;;;26.68;15.48;;;;;;;3.01;74.68;102365.12;1837588;77;21696;-54
2023/01/22 12:19:45;;;;;;;28.35;14.05;;;;;;;3.04;74.69;102362.25;1836091;78;21777;-54
2023/01/22 12:23:05;;;;;;;24.95;14.20;;;;;;;3.05;74.66;102366.69;1819001;77;21197;-55
2023/01/22 12:26:28;;;;;;;21.73;14.68;;;;;;;2.98;74.52;102361.22;1836358;77;21185;-55
2023/01/22 12:29:45;;;;;;;25.05;14.80;;;;;;;2.97;74.60;102363.50;1838960;77;21205;-55
2023/01/22 12:32:58;;;;;;;25.12;13.48;;;;;;;2.92;74.60;102364.21;1839678;78;21181;-55
2023/01/22 12:36:08;;;;;;;27.17;14.47;;;;;;;2.87;74.62;102370.36;1835146;78;21574;-55
2023/01/22 12:39:33;;;;;;;23.15;14.13;;;;;;;2.86;74.69;102376.23;1836229;77;21260;-54
2023/01/22 12:42:50;;;;;;;26.37;14.70;;;;;;;2.93;74.79;102379.02;1836221;78;21161;-55
2023/01/22 12:46:41;;;;;;;24.57;13.93;;;;;;;2.98;74.83;102378.80;1835778;77;21177;-54
2023/01/22 12:49:56;;;;;;;24.95;13.45;;;;;;;2.99;74.86;102388.66;1823781;78;21209;-54
2023/01/22 12:53:13;;;;;;;22.50;13.80;;;;;;;3.03;74.91;102384.36;1801500;79;21589;-54
2023/01/22 12:56:18;;;;;;;25.72;16.10;;;;;;;3.05;74.85;102382.45;1808305;78;21232;-54
2023/01/22 12:59:49;;;;;;;28.65;16.70;;;;;;;3.10;74.85;102395.74;1835527;78;21213;-54
2023/01/22 13:02:56;;;;;;;30.92;15.75;;;;;;;3.04;74.72;102394.21;1832076;77;21209;-55
2023/01/22 13:06:04;;;;;;;23.90;13.75;;;;;;;3.06;74.71;102399.55;1836151;78;21166;-55
2023/01/22 13:09:15;;;;;;;24.67;13.55;;;;;;;3.00;74.66;102391.75;1834432;78;21327;-54
2023/01/22 13:12:34;;;;;;;25.85;14.38;;;;;;;2.98;74.74;102395.89;1837659;78;21212;-54
2023/01/22 13:15:44;;;;;;;21.65;12.53;;;;;;;3.02;74.78;102399.31;1836165;77;21192;-54
2023/01/22 13:18:56;;;;;;;28.52;13.35;;;;;;;3.05;74.83;102393.75;1838047;76;21177;-55
2023/01/22 13:22:09;;;;;;;29.92;13.78;;;;;;;2.90;74.50;102395.90;1836369;78;21153;-55
2023/01/22 13:25:12;;;;;;;25.30;13.60;;;;;;;2.75;74.35;102402.06;1837909;76;21209;-53
2023/01/22 13:28:25;;;;;;;27.00;13.05;;;;;;;2.67;74.42;102401.57;1821227;78;21185;-54
2023/01/22 13:31:33;;;;;;;28.13;13.73;;;;;;;2.57;74.42;102400.30;1843346;77;21173;-55
2023/01/22 13:34:39;;;;;;;31.25;14.15;;;;;;;2.57;74.59;102396.24;1840906;77;21193;-55
2023/01/22 13:37:46;;;;;;;26.17;13.05;;;;;;;2.54;74.57;102401.77;1810703;79;21243;-54
2023/01/22 13:40:54;;;;;;;23.92;13.95;;;;;;;2.56;74.76;102397.17;1819296;77;21259;-53
2023/01/22 13:44:00;;;;;;;26.23;14.23;;;;;;;2.63;74.93;102402.19;1822895;78;21239;-54
2023/01/22 13:47:08;;;;;;;26.12;14.50;;;;;;;2.68;74.98;102393.38;1823444;78;21781;-54
2023/01/22 13:50:12;;;;;;;28.12;14.05;;;;;;;2.74;75.01;102404.39;1809283;78;21255;-53
2023/01/22 13:53:22;;;;;;;27.45;13.93;;;;;;;2.77;75.00;102397.00;1804435;77;21220;-54
2023/01/22 13:56:29;;;;;;;21.97;11.93;;;;;;;2.79;74.98;102398.27;1836270;77;21248;-54
2023/01/22 13:59:36;;;;;;;28.17;12.85;;;;;;;2.81;75.01;102394.52;1842801;77;21185;-54
2023/01/22 14:02:41;;;;;;;31.42;14.18;;;;;;;2.84;75.00;102394.83;1842267;77;21709;-53
2023/01/22 14:05:48;;;;;;;25.12;13.58;;;;;;;2.87;75.02;102397.41;1843012;76;21204;-54
2023/01/22 14:08:58;;;;;;;24.87;12.85;;;;;;;2.89;74.99;102402.24;1831612;78;21370;-54
2023/01/22 14:12:06;;;;;;;57.40;38.10;;;;;;;2.87;74.89;102399.62;1843889;77;21315;-55
2023/01/22 14:15:27;;;;;;;34.80;16.07;;;;;;;2.89;74.93;102402.24;1843393;76;21519;-55
2023/01/22 14:18:33;;;;;;;29.95;16.65;;;;;;;2.92;75.00;102407.49;1845852;77;21212;-55
2023/01/22 14:21:39;;;;;;;45.73;22.05;;;;;;;2.94;75.02;102406.95;1855269;77;22026;-55
2023/01/22 14:24:45;;;;;;;31.20;16.32;;;;;;;2.93;74.94;102401.15;1855335;75;21243;-55
2023/01/22 14:27:54;;;;;;;39.63;19.85;;;;;;;2.93;74.93;102401.15;1837004;77;21272;-54
2023/01/22 14:31:00;;;;;;;36.03;18.23;;;;;;;2.90;74.88;102404.02;1838430;77;21287;-54
2023/01/22 14:34:09;;;;;;;30.77;16.42;;;;;;;2.85;74.84;102405.57;1799023;79;21602;-54
2023/01/22 14:37:22;;;;;;;31.48;16.57;;;;;;;2.86;74.91;102410.05;1830774;77;21662;-54
2023/01/22 14:40:29;;;;;;;39.48;18.57;;;;;;;2.84;74.88;102404.30;1836428;77;21193;-54
2023/01/22 14:43:37;;;;;;;40.17;15.98;;;;;;;2.81;74.90;102413.92;1836442;78;21366;-54